sensor_id;sensor_type;location;lat;lon;timestamp;P1;durP1;ratioP1;P2;durP2;ratioP2
44165;SDS011;30476;53.468;9.826;2023-03-14T00:00:24;2.00;;;1.90;;
44165;SDS011;30476;53.468;9.826;2023-03-14T00:02:53;3.20;;;2.77;;
44165;SDS011;30476;53.468;9.826;2023-03-14T00:05:19;2.80;;;2.60;;
44165;SDS011;30476;53.468;9.826;2023-03-14T00:07:45;2.90;;;2.40;;
44165;SDS011;30476;53.468;9.826;2023-03-14T00:10:12;4.30;;;2.30;;
44165;SDS011;30476;53.468;9.826;2023-03-14T00:12:39;3.87;;;2.53;;
44165;SDS011;30476;53.468;9.826;2023-03-14T00:15:06;5.00;;;1.90;;
44165;SDS011;30476;53.468;9.826;2023-03-14T00:17:33;3.20;;;2.30;;
44165;SDS011;30476;53.468;9.826;2023-03-14T00:20:00;3.00;;;2.63;;
44165;SDS011;30476;53.468;9.826;2023-03-14T00:22:37;3.43;;;2.57;;
44165;SDS011;30476;53.468;9.826;2023-03-14T00:25:04;2.47;;;2.27;;
44165;SDS011;30476;53.468;9.826;2023-03-14T00:27:31;3.10;;;2.50;;
44165;SDS011;30476;53.468;9.826;2023-03-14T00:29:57;2.73;;;1.90;;
44165;SDS011;30476;53.468;9.826;2023-03-14T00:32:23;2.73;;;2.30;;
44165;SDS011;30476;53.468;9.826;2023-03-14T00:34:49;3.13;;;2.17;;
44165;SDS011;30476;53.468;9.826;2023-03-14T00:37:15;3.83;;;2.23;;
44165;SDS011;30476;53.468;9.826;2023-03-14T00:39:41;2.50;;;2.00;;
44165;SDS011;30476;53.468;9.826;2023-03-14T00:42:07;5.40;;;2.37;;
44165;SDS011;30476;53.468;9.826;2023-03-14T00:44:33;3.50;;;2.40;;
44165;SDS011;30476;53.468;9.826;2023-03-14T00:46:59;4.10;;;2.30;;
44165;SDS011;30476;53.468;9.826;2023-03-14T00:49:24;6.27;;;2.20;;
44165;SDS011;30476;53.468;9.826;2023-03-14T00:51:51;3.50;;;2.30;;
44165;SDS011;30476;53.468;9.826;2023-03-14T00:54:17;6.63;;;2.30;;
44165;SDS011;30476;53.468;9.826;2023-03-14T00:56:43;3.40;;;2.27;;
44165;SDS011;30476;53.468;9.826;2023-03-14T00:59:09;6.47;;;2.67;;
44165;SDS011;30476;53.468;9.826;2023-03-14T01:01:35;4.17;;;2.07;;
44165;SDS011;30476;53.468;9.826;2023-03-14T01:04:01;4.87;;;2.30;;
44165;SDS011;30476;53.468;9.826;2023-03-14T01:06:27;3.30;;;2.50;;
44165;SDS011;30476;53.468;9.826;2023-03-14T01:08:55;7.80;;;2.27;;
44165;SDS011;30476;53.468;9.826;2023-03-14T01:11:25;4.13;;;2.53;;
44165;SDS011;30476;53.468;9.826;2023-03-14T01:13:56;6.97;;;1.90;;
44165;SDS011;30476;53.468;9.826;2023-03-14T01:16:23;3.47;;;2.13;;
44165;SDS011;30476;53.468;9.826;2023-03-14T01:18:50;6.30;;;2.70;;
44165;SDS011;30476;53.468;9.826;2023-03-14T01:21:20;2.40;;;2.00;;
44165;SDS011;30476;53.468;9.826;2023-03-14T01:23:46;2.70;;;2.20;;
44165;SDS011;30476;53.468;9.826;2023-03-14T01:26:14;6.30;;;2.20;;
44165;SDS011;30476;53.468;9.826;2023-03-14T01:28:44;3.07;;;2.10;;
44165;SDS011;30476;53.468;9.826;2023-03-14T01:31:11;2.93;;;2.70;;
44165;SDS011;30476;53.468;9.826;2023-03-14T01:33:37;4.10;;;2.13;;
44165;SDS011;30476;53.468;9.826;2023-03-14T01:36:04;2.30;;;2.07;;
44165;SDS011;30476;53.468;9.826;2023-03-14T01:38:34;3.93;;;2.30;;
44165;SDS011;30476;53.468;9.826;2023-03-14T01:41:01;2.63;;;2.43;;
44165;SDS011;30476;53.468;9.826;2023-03-14T01:43:27;3.50;;;2.40;;
44165;SDS011;30476;53.468;9.826;2023-03-14T01:48:35;2.40;;;2.20;;
44165;SDS011;30476;53.468;9.826;2023-03-14T01:51:07;4.70;;;2.10;;
44165;SDS011;30476;53.468;9.826;2023-03-14T01:53:37;3.37;;;2.53;;
44165;SDS011;30476;53.468;9.826;2023-03-14T01:56:05;5.40;;;3.00;;
44165;SDS011;30476;53.468;9.826;2023-03-14T01:58:33;4.47;;;3.10;;
44165;SDS011;30476;53.468;9.826;2023-03-14T02:01:02;4.17;;;2.30;;
44165;SDS011;30476;53.468;9.826;2023-03-14T02:03:29;3.83;;;2.60;;
44165;SDS011;30476;53.468;9.826;2023-03-14T02:05:57;3.70;;;2.37;;
44165;SDS011;30476;53.468;9.826;2023-03-14T02:08:29;5.70;;;3.07;;
44165;SDS011;30476;53.468;9.826;2023-03-14T02:10:56;9.50;;;2.80;;
44165;SDS011;30476;53.468;9.826;2023-03-14T02:13:22;3.50;;;2.20;;
44165;SDS011;30476;53.468;9.826;2023-03-14T02:15:48;2.40;;;2.20;;
44165;SDS011;30476;53.468;9.826;2023-03-14T02:18:15;3.77;;;2.13;;
44165;SDS011;30476;53.468;9.826;2023-03-14T02:20:46;4.00;;;2.30;;
44165;SDS011;30476;53.468;9.826;2023-03-14T02:27:11;2.60;;;2.13;;
44165;SDS011;30476;53.468;9.826;2023-03-14T02:29:33;3.00;;;2.37;;
44165;SDS011;30476;53.468;9.826;2023-03-14T02:32:04;5.10;;;2.43;;
44165;SDS011;30476;53.468;9.826;2023-03-14T02:34:31;4.10;;;3.70;;
44165;SDS011;30476;53.468;9.826;2023-03-14T02:36:58;6.20;;;3.13;;
44165;SDS011;30476;53.468;9.826;2023-03-14T02:39:30;3.23;;;2.63;;
44165;SDS011;30476;53.468;9.826;2023-03-14T02:42:03;5.60;;;3.10;;
44165;SDS011;30476;53.468;9.826;2023-03-14T02:44:29;2.67;;;2.47;;
44165;SDS011;30476;53.468;9.826;2023-03-14T02:46:55;4.07;;;2.73;;
44165;SDS011;30476;53.468;9.826;2023-03-14T02:49:21;3.10;;;2.60;;
44165;SDS011;30476;53.468;9.826;2023-03-14T02:51:48;4.50;;;3.00;;
44165;SDS011;30476;53.468;9.826;2023-03-14T02:54:15;3.30;;;2.73;;
44165;SDS011;30476;53.468;9.826;2023-03-14T02:56:41;3.40;;;2.30;;
44165;SDS011;30476;53.468;9.826;2023-03-14T02:59:07;5.80;;;2.57;;
44165;SDS011;30476;53.468;9.826;2023-03-14T03:01:33;4.97;;;2.73;;
44165;SDS011;30476;53.468;9.826;2023-03-14T03:03:59;6.00;;;3.13;;
44165;SDS011;30476;53.468;9.826;2023-03-14T03:06:25;5.20;;;3.00;;
44165;SDS011;30476;53.468;9.826;2023-03-14T03:08:51;4.50;;;2.67;;
44165;SDS011;30476;53.468;9.826;2023-03-14T03:11:17;4.47;;;2.20;;
44165;SDS011;30476;53.468;9.826;2023-03-14T03:13:43;3.93;;;2.70;;
44165;SDS011;30476;53.468;9.826;2023-03-14T03:16:09;5.73;;;3.70;;
44165;SDS011;30476;53.468;9.826;2023-03-14T03:18:35;2.93;;;2.63;;
44165;SDS011;30476;53.468;9.826;2023-03-14T03:21:01;3.57;;;2.70;;
44165;SDS011;30476;53.468;9.826;2023-03-14T03:23:29;3.33;;;3.03;;
44165;SDS011;30476;53.468;9.826;2023-03-14T03:25:55;3.03;;;2.67;;
44165;SDS011;30476;53.468;9.826;2023-03-14T03:28:21;2.53;;;2.30;;
44165;SDS011;30476;53.468;9.826;2023-03-14T03:30:47;3.97;;;2.57;;
44165;SDS011;30476;53.468;9.826;2023-03-14T03:33:13;6.10;;;2.90;;
44165;SDS011;30476;53.468;9.826;2023-03-14T03:35:43;4.60;;;1.83;;
44165;SDS011;30476;53.468;9.826;2023-03-14T03:38:10;2.13;;;2.00;;
44165;SDS011;30476;53.468;9.826;2023-03-14T03:40:37;3.47;;;2.40;;
44165;SDS011;30476;53.468;9.826;2023-03-14T03:43:03;4.73;;;2.53;;
44165;SDS011;30476;53.468;9.826;2023-03-14T03:45:29;6.30;;;2.57;;
44165;SDS011;30476;53.468;9.826;2023-03-14T03:47:55;5.27;;;2.43;;
44165;SDS011;30476;53.468;9.826;2023-03-14T03:50:21;3.10;;;2.30;;
44165;SDS011;30476;53.468;9.826;2023-03-14T03:52:47;2.60;;;2.10;;
44165;SDS011;30476;53.468;9.826;2023-03-14T03:55:13;4.63;;;2.43;;
44165;SDS011;30476;53.468;9.826;2023-03-14T03:57:39;4.43;;;2.40;;
44165;SDS011;30476;53.468;9.826;2023-03-14T04:00:05;3.67;;;3.10;;
44165;SDS011;30476;53.468;9.826;2023-03-14T04:02:34;7.80;;;2.57;;
44165;SDS011;30476;53.468;9.826;2023-03-14T04:05:00;3.93;;;2.33;;
44165;SDS011;30476;53.468;9.826;2023-03-14T04:07:25;4.27;;;2.43;;
44165;SDS011;30476;53.468;9.826;2023-03-14T04:09:51;6.43;;;2.90;;
44165;SDS011;30476;53.468;9.826;2023-03-14T04:12:17;4.13;;;2.23;;
44165;SDS011;30476;53.468;9.826;2023-03-14T04:14:43;4.47;;;3.07;;
44165;SDS011;30476;53.468;9.826;2023-03-14T04:17:10;5.37;;;4.00;;
44165;SDS011;30476;53.468;9.826;2023-03-14T04:19:36;3.03;;;2.80;;
44165;SDS011;30476;53.468;9.826;2023-03-14T04:22:01;3.63;;;3.13;;
44165;SDS011;30476;53.468;9.826;2023-03-14T04:24:27;5.90;;;3.13;;
44165;SDS011;30476;53.468;9.826;2023-03-14T04:26:53;5.20;;;3.40;;
44165;SDS011;30476;53.468;9.826;2023-03-14T04:29:19;7.50;;;3.50;;
44165;SDS011;30476;53.468;9.826;2023-03-14T04:31:45;8.53;;;3.30;;
44165;SDS011;30476;53.468;9.826;2023-03-14T04:34:11;3.63;;;3.33;;
44165;SDS011;30476;53.468;9.826;2023-03-14T04:36:37;3.53;;;2.93;;
44165;SDS011;30476;53.468;9.826;2023-03-14T04:39:02;4.90;;;3.53;;
44165;SDS011;30476;53.468;9.826;2023-03-14T04:41:29;5.13;;;3.30;;
44165;SDS011;30476;53.468;9.826;2023-03-14T04:43:55;4.43;;;3.17;;
44165;SDS011;30476;53.468;9.826;2023-03-14T04:46:21;4.07;;;2.90;;
44165;SDS011;30476;53.468;9.826;2023-03-14T04:48:47;5.20;;;3.20;;
44165;SDS011;30476;53.468;9.826;2023-03-14T04:51:13;4.67;;;3.53;;
44165;SDS011;30476;53.468;9.826;2023-03-14T04:53:39;6.23;;;3.00;;
44165;SDS011;30476;53.468;9.826;2023-03-14T04:56:05;4.60;;;2.87;;
44165;SDS011;30476;53.468;9.826;2023-03-14T04:58:31;4.63;;;2.90;;
44165;SDS011;30476;53.468;9.826;2023-03-14T05:01:01;3.07;;;2.80;;
44165;SDS011;30476;53.468;9.826;2023-03-14T05:03:28;4.97;;;3.50;;
44165;SDS011;30476;53.468;9.826;2023-03-14T05:05:54;4.23;;;3.73;;
44165;SDS011;30476;53.468;9.826;2023-03-14T05:08:22;5.13;;;3.10;;
44165;SDS011;30476;53.468;9.826;2023-03-14T05:10:54;4.00;;;3.60;;
44165;SDS011;30476;53.468;9.826;2023-03-14T05:13:22;3.43;;;3.10;;
44165;SDS011;30476;53.468;9.826;2023-03-14T05:15:48;3.57;;;3.30;;
44165;SDS011;30476;53.468;9.826;2023-03-14T05:18:16;5.43;;;3.40;;
44165;SDS011;30476;53.468;9.826;2023-03-14T05:20:42;8.27;;;3.73;;
44165;SDS011;30476;53.468;9.826;2023-03-14T05:23:11;7.63;;;3.60;;
44165;SDS011;30476;53.468;9.826;2023-03-14T05:25:37;3.97;;;3.67;;
44165;SDS011;30476;53.468;9.826;2023-03-14T05:28:02;5.30;;;3.80;;
44165;SDS011;30476;53.468;9.826;2023-03-14T05:30:29;3.23;;;2.93;;
44165;SDS011;30476;53.468;9.826;2023-03-14T05:32:56;3.90;;;3.53;;
44165;SDS011;30476;53.468;9.826;2023-03-14T05:35:21;7.40;;;3.93;;
44165;SDS011;30476;53.468;9.826;2023-03-14T05:37:47;4.50;;;4.10;;
44165;SDS011;30476;53.468;9.826;2023-03-14T05:40:13;4.70;;;3.53;;
44165;SDS011;30476;53.468;9.826;2023-03-14T05:42:38;4.10;;;3.70;;
44165;SDS011;30476;53.468;9.826;2023-03-14T05:45:04;7.07;;;3.47;;
44165;SDS011;30476;53.468;9.826;2023-03-14T05:47:31;3.47;;;3.27;;
44165;SDS011;30476;53.468;9.826;2023-03-14T05:49:57;3.87;;;3.53;;
44165;SDS011;30476;53.468;9.826;2023-03-14T05:52:22;4.07;;;3.77;;
44165;SDS011;30476;53.468;9.826;2023-03-14T05:54:48;7.80;;;4.07;;
44165;SDS011;30476;53.468;9.826;2023-03-14T05:57:14;5.93;;;3.27;;
44165;SDS011;30476;53.468;9.826;2023-03-14T05:59:40;5.70;;;3.30;;
44165;SDS011;30476;53.468;9.826;2023-03-14T06:02:06;8.13;;;3.80;;
44165;SDS011;30476;53.468;9.826;2023-03-14T06:04:32;8.60;;;4.73;;
44165;SDS011;30476;53.468;9.826;2023-03-14T06:06:57;4.07;;;3.53;;
44165;SDS011;30476;53.468;9.826;2023-03-14T06:09:23;5.27;;;3.80;;
44165;SDS011;30476;53.468;9.826;2023-03-14T06:11:49;4.33;;;3.27;;
44165;SDS011;30476;53.468;9.826;2023-03-14T06:14:15;8.80;;;4.23;;
44165;SDS011;30476;53.468;9.826;2023-03-14T06:16:41;4.63;;;3.10;;
44165;SDS011;30476;53.468;9.826;2023-03-14T06:19:07;3.17;;;2.83;;
44165;SDS011;30476;53.468;9.826;2023-03-14T06:21:33;3.50;;;3.30;;
44165;SDS011;30476;53.468;9.826;2023-03-14T06:23:59;4.40;;;2.93;;
44165;SDS011;30476;53.468;9.826;2023-03-14T06:26:24;3.10;;;2.63;;
44165;SDS011;30476;53.468;9.826;2023-03-14T06:28:50;2.57;;;2.00;;
44165;SDS011;30476;53.468;9.826;2023-03-14T06:31:16;2.77;;;2.33;;
44165;SDS011;30476;53.468;9.826;2023-03-14T06:33:42;5.67;;;2.73;;
44165;SDS011;30476;53.468;9.826;2023-03-14T06:36:08;4.97;;;2.73;;
44165;SDS011;30476;53.468;9.826;2023-03-14T06:38:34;2.50;;;2.30;;
44165;SDS011;30476;53.468;9.826;2023-03-14T06:41:04;3.60;;;2.27;;
44165;SDS011;30476;53.468;9.826;2023-03-14T06:43:30;3.30;;;2.43;;
44165;SDS011;30476;53.468;9.826;2023-03-14T06:45:56;1.87;;;1.77;;
44165;SDS011;30476;53.468;9.826;2023-03-14T06:48:22;4.80;;;1.70;;
44165;SDS011;30476;53.468;9.826;2023-03-14T06:50:48;2.93;;;1.53;;
44165;SDS011;30476;53.468;9.826;2023-03-14T06:53:14;4.80;;;2.43;;
44165;SDS011;30476;53.468;9.826;2023-03-14T06:55:40;2.70;;;1.67;;
44165;SDS011;30476;53.468;9.826;2023-03-14T06:58:06;4.40;;;2.00;;
44165;SDS011;30476;53.468;9.826;2023-03-14T07:00:33;4.73;;;1.57;;
44165;SDS011;30476;53.468;9.826;2023-03-14T07:02:59;3.63;;;1.70;;
44165;SDS011;30476;53.468;9.826;2023-03-14T07:05:25;3.67;;;1.93;;
44165;SDS011;30476;53.468;9.826;2023-03-14T07:07:51;5.13;;;1.70;;
44165;SDS011;30476;53.468;9.826;2023-03-14T07:10:17;3.97;;;1.70;;
44165;SDS011;30476;53.468;9.826;2023-03-14T07:12:43;4.80;;;2.43;;
44165;SDS011;30476;53.468;9.826;2023-03-14T07:15:09;5.97;;;2.47;;
44165;SDS011;30476;53.468;9.826;2023-03-14T07:17:35;3.40;;;1.93;;
44165;SDS011;30476;53.468;9.826;2023-03-14T07:20:00;5.70;;;2.60;;
44165;SDS011;30476;53.468;9.826;2023-03-14T07:22:28;3.73;;;2.07;;
44165;SDS011;30476;53.468;9.826;2023-03-14T07:24:54;4.97;;;2.67;;
44165;SDS011;30476;53.468;9.826;2023-03-14T07:27:20;3.43;;;1.90;;
44165;SDS011;30476;53.468;9.826;2023-03-14T07:29:45;2.77;;;2.03;;
44165;SDS011;30476;53.468;9.826;2023-03-14T07:32:11;2.67;;;1.40;;
44165;SDS011;30476;53.468;9.826;2023-03-14T07:34:42;4.30;;;1.27;;
44165;SDS011;30476;53.468;9.826;2023-03-14T07:37:09;2.27;;;1.40;;
44165;SDS011;30476;53.468;9.826;2023-03-14T07:39:35;4.67;;;1.40;;
44165;SDS011;30476;53.468;9.826;2023-03-14T07:42:00;3.00;;;1.17;;
44165;SDS011;30476;53.468;9.826;2023-03-14T07:44:26;3.37;;;1.10;;
44165;SDS011;30476;53.468;9.826;2023-03-14T07:46:52;1.80;;;1.10;;
44165;SDS011;30476;53.468;9.826;2023-03-14T07:49:18;4.00;;;1.23;;
44165;SDS011;30476;53.468;9.826;2023-03-14T07:51:44;2.47;;;1.00;;
44165;SDS011;30476;53.468;9.826;2023-03-14T07:54:13;1.43;;;1.33;;
44165;SDS011;30476;53.468;9.826;2023-03-14T07:56:39;4.80;;;1.40;;
44165;SDS011;30476;53.468;9.826;2023-03-14T07:59:04;1.70;;;1.43;;
44165;SDS011;30476;53.468;9.826;2023-03-14T08:01:30;2.00;;;1.50;;
44165;SDS011;30476;53.468;9.826;2023-03-14T08:03:56;2.10;;;1.37;;
44165;SDS011;30476;53.468;9.826;2023-03-14T08:06:22;3.33;;;1.97;;
44165;SDS011;30476;53.468;9.826;2023-03-14T08:08:48;2.37;;;1.70;;
44165;SDS011;30476;53.468;9.826;2023-03-14T08:11:14;2.37;;;2.17;;
44165;SDS011;30476;53.468;9.826;2023-03-14T08:13:40;2.40;;;2.23;;
44165;SDS011;30476;53.468;9.826;2023-03-14T08:16:06;3.53;;;1.97;;
44165;SDS011;30476;53.468;9.826;2023-03-14T08:18:32;3.13;;;1.80;;
44165;SDS011;30476;53.468;9.826;2023-03-14T08:20:58;4.90;;;2.03;;
44165;SDS011;30476;53.468;9.826;2023-03-14T08:23:24;2.73;;;2.30;;
44165;SDS011;30476;53.468;9.826;2023-03-14T08:25:50;2.37;;;2.17;;
44165;SDS011;30476;53.468;9.826;2023-03-14T08:28:17;2.47;;;2.27;;
44165;SDS011;30476;53.468;9.826;2023-03-14T08:30:43;4.30;;;2.53;;
44165;SDS011;30476;53.468;9.826;2023-03-14T08:33:09;3.90;;;2.67;;
44165;SDS011;30476;53.468;9.826;2023-03-14T08:35:37;4.70;;;3.20;;
44165;SDS011;30476;53.468;9.826;2023-03-14T08:38:03;4.73;;;2.87;;
44165;SDS011;30476;53.468;9.826;2023-03-14T08:40:29;6.10;;;3.10;;
44165;SDS011;30476;53.468;9.826;2023-03-14T08:42:55;4.27;;;3.50;;
44165;SDS011;30476;53.468;9.826;2023-03-14T08:45:21;3.70;;;3.40;;
44165;SDS011;30476;53.468;9.826;2023-03-14T08:47:46;10.20;;;4.23;;
44165;SDS011;30476;53.468;9.826;2023-03-14T08:50:13;3.50;;;2.90;;
44165;SDS011;30476;53.468;9.826;2023-03-14T08:52:38;6.60;;;3.27;;
44165;SDS011;30476;53.468;9.826;2023-03-14T08:55:06;4.33;;;2.90;;
44165;SDS011;30476;53.468;9.826;2023-03-14T08:57:33;7.10;;;3.70;;
44165;SDS011;30476;53.468;9.826;2023-03-14T08:59:59;3.83;;;2.93;;
44165;SDS011;30476;53.468;9.826;2023-03-14T09:02:25;4.73;;;4.17;;
44165;SDS011;30476;53.468;9.826;2023-03-14T09:04:51;5.77;;;3.60;;
44165;SDS011;30476;53.468;9.826;2023-03-14T09:07:18;7.13;;;3.20;;
44165;SDS011;30476;53.468;9.826;2023-03-14T09:09:44;4.77;;;3.40;;
44165;SDS011;30476;53.468;9.826;2023-03-14T09:12:10;4.53;;;3.87;;
44165;SDS011;30476;53.468;9.826;2023-03-14T09:14:36;3.90;;;3.60;;
44165;SDS011;30476;53.468;9.826;2023-03-14T09:17:02;6.20;;;4.03;;
44165;SDS011;30476;53.468;9.826;2023-03-14T09:19:29;6.47;;;4.67;;
44165;SDS011;30476;53.468;9.826;2023-03-14T09:21:55;11.10;;;5.33;;
44165;SDS011;30476;53.468;9.826;2023-03-14T09:24:21;8.00;;;3.90;;
44165;SDS011;30476;53.468;9.826;2023-03-14T09:26:47;8.87;;;4.43;;
44165;SDS011;30476;53.468;9.826;2023-03-14T09:29:13;5.60;;;3.90;;
44165;SDS011;30476;53.468;9.826;2023-03-14T09:31:39;5.00;;;4.60;;
44165;SDS011;30476;53.468;9.826;2023-03-14T09:34:05;4.93;;;4.40;;
44165;SDS011;30476;53.468;9.826;2023-03-14T09:36:30;9.80;;;4.40;;
44165;SDS011;30476;53.468;9.826;2023-03-14T09:38:56;7.67;;;5.40;;
44165;SDS011;30476;53.468;9.826;2023-03-14T09:44:13;5.43;;;4.30;;
44165;SDS011;30476;53.468;9.826;2023-03-14T09:46:43;4.60;;;3.60;;
44165;SDS011;30476;53.468;9.826;2023-03-14T09:49:19;6.90;;;3.90;;
44165;SDS011;30476;53.468;9.826;2023-03-14T09:51:49;6.47;;;3.20;;
44165;SDS011;30476;53.468;9.826;2023-03-14T09:54:35;2.60;;;1.63;;
44165;SDS011;30476;53.468;9.826;2023-03-14T09:57:04;0.70;;;0.70;;
44165;SDS011;30476;53.468;9.826;2023-03-14T09:59:31;0.70;;;0.50;;
44165;SDS011;30476;53.468;9.826;2023-03-14T10:02:00;1.07;;;0.50;;
44165;SDS011;30476;53.468;9.826;2023-03-14T10:04:36;2.23;;;0.80;;
44165;SDS011;30476;53.468;9.826;2023-03-14T10:07:07;2.63;;;1.23;;
44165;SDS011;30476;53.468;9.826;2023-03-14T10:09:38;1.20;;;1.20;;
44165;SDS011;30476;53.468;9.826;2023-03-14T10:12:03;2.63;;;2.53;;
44165;SDS011;30476;53.468;9.826;2023-03-14T10:14:32;1.47;;;1.10;;
44165;SDS011;30476;53.468;9.826;2023-03-14T10:17:10;0.97;;;0.73;;
44165;SDS011;30476;53.468;9.826;2023-03-14T10:19:39;1.07;;;0.80;;
44165;SDS011;30476;53.468;9.826;2023-03-14T10:22:17;0.90;;;0.90;;
44165;SDS011;30476;53.468;9.826;2023-03-14T10:24:51;1.03;;;0.77;;
44165;SDS011;30476;53.468;9.826;2023-03-14T10:27:23;0.80;;;0.60;;
44165;SDS011;30476;53.468;9.826;2023-03-14T10:29:59;0.70;;;0.70;;
44165;SDS011;30476;53.468;9.826;2023-03-14T10:32:36;0.90;;;0.90;;
44165;SDS011;30476;53.468;9.826;2023-03-14T10:35:22;1.07;;;0.63;;
44165;SDS011;30476;53.468;9.826;2023-03-14T10:40:16;1.43;;;0.67;;
44165;SDS011;30476;53.468;9.826;2023-03-14T10:42:44;0.60;;;0.50;;
44165;SDS011;30476;53.468;9.826;2023-03-14T10:47:54;1.10;;;0.50;;
44165;SDS011;30476;53.468;9.826;2023-03-14T10:50:30;0.97;;;0.50;;
44165;SDS011;30476;53.468;9.826;2023-03-14T10:52:56;0.93;;;0.50;;
44165;SDS011;30476;53.468;9.826;2023-03-14T10:55:25;0.40;;;0.40;;
44165;SDS011;30476;53.468;9.826;2023-03-14T10:57:51;1.90;;;0.60;;
44165;SDS011;30476;53.468;9.826;2023-03-14T11:00:22;0.80;;;0.60;;
44165;SDS011;30476;53.468;9.826;2023-03-14T11:05:30;0.50;;;0.50;;
44165;SDS011;30476;53.468;9.826;2023-03-14T11:08:25;0.60;;;0.50;;
44165;SDS011;30476;53.468;9.826;2023-03-14T11:11:19;0.50;;;0.50;;
44165;SDS011;30476;53.468;9.826;2023-03-14T11:14:14;0.90;;;0.60;;
44165;SDS011;30476;53.468;9.826;2023-03-14T11:17:02;0.63;;;0.60;;
44165;SDS011;30476;53.468;9.826;2023-03-14T11:20:04;0.70;;;0.50;;
44165;SDS011;30476;53.468;9.826;2023-03-14T11:23:01;1.37;;;0.60;;
44165;SDS011;30476;53.468;9.826;2023-03-14T11:30:52;1.73;;;0.70;;
44165;SDS011;30476;53.468;9.826;2023-03-14T11:33:32;5.10;;;1.43;;
44165;SDS011;30476;53.468;9.826;2023-03-14T11:36:04;6.27;;;0.90;;
44165;SDS011;30476;53.468;9.826;2023-03-14T11:41:34;2.90;;;0.67;;
44165;SDS011;30476;53.468;9.826;2023-03-14T11:44:07;2.17;;;0.83;;
44165;SDS011;30476;53.468;9.826;2023-03-14T11:46:43;1.63;;;0.90;;
44165;SDS011;30476;53.468;9.826;2023-03-14T11:49:24;0.90;;;0.53;;
44165;SDS011;30476;53.468;9.826;2023-03-14T11:52:19;1.53;;;0.70;;
44165;SDS011;30476;53.468;9.826;2023-03-14T11:54:55;1.90;;;0.67;;
44165;SDS011;30476;53.468;9.826;2023-03-14T11:57:25;0.70;;;0.60;;
44165;SDS011;30476;53.468;9.826;2023-03-14T12:10:38;6.07;;;1.10;;
44165;SDS011;30476;53.468;9.826;2023-03-14T12:13:16;2.83;;;1.00;;
44165;SDS011;30476;53.468;9.826;2023-03-14T12:15:48;0.90;;;0.70;;
44165;SDS011;30476;53.468;9.826;2023-03-14T12:18:28;1.80;;;0.80;;
44165;SDS011;30476;53.468;9.826;2023-03-14T12:21:09;4.13;;;1.20;;
44165;SDS011;30476;53.468;9.826;2023-03-14T12:23:44;2.93;;;1.03;;
44165;SDS011;30476;53.468;9.826;2023-03-14T12:26:18;3.40;;;0.80;;
44165;SDS011;30476;53.468;9.826;2023-03-14T12:29:14;3.00;;;1.00;;
44165;SDS011;30476;53.468;9.826;2023-03-14T12:31:43;9.60;;;1.30;;
44165;SDS011;30476;53.468;9.826;2023-03-14T12:48:10;1.10;;;0.87;;
44165;SDS011;30476;53.468;9.826;2023-03-14T12:50:46;3.27;;;1.10;;
44165;SDS011;30476;53.468;9.826;2023-03-14T12:53:34;3.70;;;1.00;;
44165;SDS011;30476;53.468;9.826;2023-03-14T12:59:13;4.10;;;1.20;;
44165;SDS011;30476;53.468;9.826;2023-03-14T13:01:56;4.50;;;1.10;;
44165;SDS011;30476;53.468;9.826;2023-03-14T13:04:34;4.30;;;1.53;;
44165;SDS011;30476;53.468;9.826;2023-03-14T13:07:03;7.90;;;1.53;;
44165;SDS011;30476;53.468;9.826;2023-03-14T13:14:43;4.07;;;1.50;;
44165;SDS011;30476;53.468;9.826;2023-03-14T13:19:54;4.97;;;1.37;;
44165;SDS011;30476;53.468;9.826;2023-03-14T13:22:29;10.13;;;1.30;;
44165;SDS011;30476;53.468;9.826;2023-03-14T13:25:02;4.37;;;1.40;;
44165;SDS011;30476;53.468;9.826;2023-03-14T13:27:33;5.77;;;1.33;;
44165;SDS011;30476;53.468;9.826;2023-03-14T13:30:05;8.03;;;1.17;;
44165;SDS011;30476;53.468;9.826;2023-03-14T13:32:42;2.60;;;1.00;;
44165;SDS011;30476;53.468;9.826;2023-03-14T13:37:54;8.77;;;1.20;;
44165;SDS011;30476;53.468;9.826;2023-03-14T13:40:28;2.10;;;1.40;;
44165;SDS011;30476;53.468;9.826;2023-03-14T13:43:03;3.73;;;1.40;;
44165;SDS011;30476;53.468;9.826;2023-03-14T13:45:31;3.50;;;1.67;;
44165;SDS011;30476;53.468;9.826;2023-03-14T13:48:08;5.43;;;1.10;;
44165;SDS011;30476;53.468;9.826;2023-03-14T13:50:36;3.83;;;1.20;;
44165;SDS011;30476;53.468;9.826;2023-03-14T13:53:02;3.10;;;0.90;;
44165;SDS011;30476;53.468;9.826;2023-03-14T13:55:28;3.17;;;0.90;;
44165;SDS011;30476;53.468;9.826;2023-03-14T13:57:55;6.67;;;1.20;;
44165;SDS011;30476;53.468;9.826;2023-03-14T14:00:22;4.33;;;1.00;;
44165;SDS011;30476;53.468;9.826;2023-03-14T14:02:55;6.17;;;1.63;;
44165;SDS011;30476;53.468;9.826;2023-03-14T14:05:25;3.30;;;1.20;;
44165;SDS011;30476;53.468;9.826;2023-03-14T14:07:53;2.40;;;1.03;;
44165;SDS011;30476;53.468;9.826;2023-03-14T14:10:19;5.50;;;1.23;;
44165;SDS011;30476;53.468;9.826;2023-03-14T14:15:21;2.13;;;1.20;;
44165;SDS011;30476;53.468;9.826;2023-03-14T14:17:51;2.60;;;1.13;;
44165;SDS011;30476;53.468;9.826;2023-03-14T14:20:23;1.93;;;1.23;;
44165;SDS011;30476;53.468;9.826;2023-03-14T14:23:01;4.50;;;0.87;;
44165;SDS011;30476;53.468;9.826;2023-03-14T14:25:31;4.67;;;1.77;;
44165;SDS011;30476;53.468;9.826;2023-03-14T14:27:58;7.37;;;1.10;;
44165;SDS011;30476;53.468;9.826;2023-03-14T14:30:26;5.37;;;1.10;;
44165;SDS011;30476;53.468;9.826;2023-03-14T14:33:10;3.00;;;1.10;;
44165;SDS011;30476;53.468;9.826;2023-03-14T14:35:38;5.70;;;1.33;;
44165;SDS011;30476;53.468;9.826;2023-03-14T14:38:09;4.63;;;1.20;;
44165;SDS011;30476;53.468;9.826;2023-03-14T14:40:43;2.03;;;1.40;;
44165;SDS011;30476;53.468;9.826;2023-03-14T14:43:11;2.97;;;1.00;;
44165;SDS011;30476;53.468;9.826;2023-03-14T14:45:42;6.87;;;1.60;;
44165;SDS011;30476;53.468;9.826;2023-03-14T14:48:09;4.77;;;1.40;;
44165;SDS011;30476;53.468;9.826;2023-03-14T14:50:37;2.40;;;0.77;;
44165;SDS011;30476;53.468;9.826;2023-03-14T14:53:26;7.07;;;1.10;;
44165;SDS011;30476;53.468;9.826;2023-03-14T14:58:47;6.67;;;0.90;;
44165;SDS011;30476;53.468;9.826;2023-03-14T15:01:15;4.37;;;1.00;;
44165;SDS011;30476;53.468;9.826;2023-03-14T15:03:44;5.43;;;0.80;;
44165;SDS011;30476;53.468;9.826;2023-03-14T15:06:12;4.07;;;0.90;;
44165;SDS011;30476;53.468;9.826;2023-03-14T15:08:39;6.07;;;1.20;;
44165;SDS011;30476;53.468;9.826;2023-03-14T15:11:05;3.83;;;1.00;;
44165;SDS011;30476;53.468;9.826;2023-03-14T15:13:34;3.33;;;1.30;;
44165;SDS011;30476;53.468;9.826;2023-03-14T15:16:00;2.50;;;1.10;;
44165;SDS011;30476;53.468;9.826;2023-03-14T15:18:28;4.87;;;0.90;;
44165;SDS011;30476;53.468;9.826;2023-03-14T15:20:55;1.73;;;1.10;;
44165;SDS011;30476;53.468;9.826;2023-03-14T15:23:21;3.73;;;1.93;;
44165;SDS011;30476;53.468;9.826;2023-03-14T15:25:47;3.47;;;1.37;;
44165;SDS011;30476;53.468;9.826;2023-03-14T15:28:18;4.67;;;2.80;;
44165;SDS011;30476;53.468;9.826;2023-03-14T15:30:55;2.83;;;1.10;;
44165;SDS011;30476;53.468;9.826;2023-03-14T15:33:22;4.07;;;1.30;;
44165;SDS011;30476;53.468;9.826;2023-03-14T15:35:49;3.90;;;1.53;;
44165;SDS011;30476;53.468;9.826;2023-03-14T15:38:16;4.50;;;1.53;;
44165;SDS011;30476;53.468;9.826;2023-03-14T15:40:46;3.53;;;1.27;;
44165;SDS011;30476;53.468;9.826;2023-03-14T15:43:12;4.90;;;1.10;;
44165;SDS011;30476;53.468;9.826;2023-03-14T15:45:38;2.30;;;0.93;;
44165;SDS011;30476;53.468;9.826;2023-03-14T15:48:03;4.00;;;1.00;;
44165;SDS011;30476;53.468;9.826;2023-03-14T15:50:29;3.80;;;0.80;;
44165;SDS011;30476;53.468;9.826;2023-03-14T15:52:55;5.30;;;2.13;;
44165;SDS011;30476;53.468;9.826;2023-03-14T15:55:22;7.67;;;1.20;;
44165;SDS011;30476;53.468;9.826;2023-03-14T15:57:48;2.83;;;1.20;;
44165;SDS011;30476;53.468;9.826;2023-03-14T16:00:15;4.83;;;1.20;;
44165;SDS011;30476;53.468;9.826;2023-03-14T16:02:43;3.27;;;1.00;;
44165;SDS011;30476;53.468;9.826;2023-03-14T16:05:10;3.97;;;1.07;;